Terminal Aerodrome Forecast
Issued by NWS

Home | Current Version | Previous Version | Text Only | Print | Product List | Glossary On
Versions: 1 2 3 4 5 6 7 8 9 10 11 12 13 14 15 16
000
FTUS43 KFGF 261541 AAB
TAFTVF
TAF AMD
KTVF 261541Z 2616/2712 24008KT P6SM OVC015
     FM261700 24011KT P6SM BKN025
     FM261900 24012KT P6SM BKN035
     FM270300 VRB03KT P6SM SCT250
      AMD LTD TO CLD VIS AND WIND=

USA.gov is the U.S. government's official web portal to all federal, state and local government web resources and services.